Accueil
METAR-TAF:

METAR-TAF

Aéroports :

Morganton, Caroline du Nord, États-Unis

latitude: 35-49-17N, longitude: 081-36-39W, altitude: 387 m

Observation

Le bulletin a été fait il y a 12 minutes, à 19:55 UTC
Vent 5 kt de nord
Température 32°C
Humidité 43%
Pression 1013 hPa
Visibilité: 16.1 km
Nuages épars à une hauteur de 5000 ft
Nuages épars à une hauteur de 5500 ft
Nuages épars à une hauteur de 7000 ft

METAR: KMRN 101955Z AUTO 35005KT 10SM SCT050 SCT055 SCT070 32/18 A2992 RMK AO2 T03150184

Heure: 16:07 (20:07 UTC)


TAF: absent

Observations et prévisions météorologiques de plus de 4000 aéroports (messages METAR et TAF).

Les stations disponibles sont représentées par des disques jaunes et rouges sur la carte.

Passer la souris dessus pour voir le nom de la station.

Cliquer dessus pour voir les observations et prévisions météorologiques.

Pour changer de carte: cliquez sur les boutons verts avec une croix noire pour zoomer, sur le bouton vert avec un tiret pour effectuer un zoom arrière, ou sur les flèches vertes pour les cartes adjacentes.


METAR-TAF: